sensor_id;sensor_type;location;lat;lon;timestamp;pressure;altitude;pressure_sealevel;temperature;humidity
20424;BME280;10371;49.042;8.002;2023-04-29T00:00:33;99543.63;;;13.01;100.00
20424;BME280;10371;49.042;8.002;2023-04-29T00:01:34;99545.44;;;13.00;100.00
20424;BME280;10371;49.042;8.002;2023-04-29T00:02:34;99541.03;;;13.01;100.00
20424;BME280;10371;49.042;8.002;2023-04-29T00:03:34;99541.19;;;12.99;100.00
20424;BME280;10371;49.042;8.002;2023-04-29T00:04:35;99542.81;;;13.00;100.00
20424;BME280;10371;49.042;8.002;2023-04-29T00:05:35;99542.31;;;12.96;100.00
20424;BME280;10371;49.042;8.002;2023-04-29T00:06:35;99538.72;;;12.97;100.00
20424;BME280;10371;49.042;8.002;2023-04-29T00:07:36;99538.19;;;12.94;100.00
20424;BME280;10371;49.042;8.002;2023-04-29T00:08:37;99538.88;;;12.96;100.00
20424;BME280;10371;49.042;8.002;2023-04-29T00:09:37;99532.16;;;12.93;100.00
20424;BME280;10371;49.042;8.002;2023-04-29T00:10:37;99529.97;;;12.89;100.00
20424;BME280;10371;49.042;8.002;2023-04-29T00:11:38;99536.84;;;12.90;100.00
20424;BME280;10371;49.042;8.002;2023-04-29T00:12:39;99535.72;;;12.92;100.00
20424;BME280;10371;49.042;8.002;2023-04-29T00:13:40;99538.47;;;12.91;100.00
20424;BME280;10371;49.042;8.002;2023-04-29T00:14:40;99534.06;;;12.91;100.00
20424;BME280;10371;49.042;8.002;2023-04-29T00:15:42;99541.09;;;12.91;100.00
20424;BME280;10371;49.042;8.002;2023-04-29T00:16:42;99535.19;;;12.89;100.00
20424;BME280;10371;49.042;8.002;2023-04-29T00:17:43;99537.66;;;12.90;100.00
20424;BME280;10371;49.042;8.002;2023-04-29T00:18:44;99538.91;;;12.86;100.00
20424;BME280;10371;49.042;8.002;2023-04-29T00:19:44;99535.63;;;12.84;100.00
20424;BME280;10371;49.042;8.002;2023-04-29T00:20:45;99542.34;;;12.87;100.00
20424;BME280;10371;49.042;8.002;2023-04-29T00:21:45;99534.66;;;12.85;100.00
20424;BME280;10371;49.042;8.002;2023-04-29T00:22:45;99542.63;;;12.84;100.00
20424;BME280;10371;49.042;8.002;2023-04-29T00:23:46;99537.41;;;12.84;100.00
20424;BME280;10371;49.042;8.002;2023-04-29T00:24:46;99537.41;;;12.84;100.00
20424;BME280;10371;49.042;8.002;2023-04-29T00:25:46;99538.25;;;12.84;100.00
20424;BME280;10371;49.042;8.002;2023-04-29T00:26:47;99537.56;;;12.82;100.00
20424;BME280;10371;49.042;8.002;2023-04-29T00:27:47;99541.13;;;12.81;100.00
20424;BME280;10371;49.042;8.002;2023-04-29T00:28:48;99540.19;;;12.82;100.00
20424;BME280;10371;49.042;8.002;2023-04-29T00:29:48;99540.19;;;12.82;100.00
20424;BME280;10371;49.042;8.002;2023-04-29T00:30:48;99539.50;;;12.80;100.00
20424;BME280;10371;49.042;8.002;2023-04-29T00:31:48;99533.16;;;12.83;100.00
20424;BME280;10371;49.042;8.002;2023-04-29T00:32:49;99537.56;;;12.82;100.00
20424;BME280;10371;49.042;8.002;2023-04-29T00:33:49;99542.78;;;12.82;100.00
20424;BME280;10371;49.042;8.002;2023-04-29T00:34:49;99537.56;;;12.82;100.00
20424;BME280;10371;49.042;8.002;2023-04-29T00:35:50;99539.88;;;12.85;100.00
20424;BME280;10371;49.042;8.002;2023-04-29T00:36:51;99539.06;;;12.85;100.00
20424;BME280;10371;49.042;8.002;2023-04-29T00:37:51;99536.00;;;12.89;100.00
20424;BME280;10371;49.042;8.002;2023-04-29T00:38:51;99541.53;;;12.86;100.00
20424;BME280;10371;49.042;8.002;2023-04-29T00:39:51;99550.03;;;12.88;100.00
20424;BME280;10371;49.042;8.002;2023-04-29T00:40:52;99546.44;;;12.89;100.00
20424;BME280;10371;49.042;8.002;2023-04-29T00:41:52;99549.06;;;12.89;100.00
20424;BME280;10371;49.042;8.002;2023-04-29T00:42:53;99537.97;;;12.87;100.00
20424;BME280;10371;49.042;8.002;2023-04-29T00:43:54;99551.31;;;12.84;100.00
20424;BME280;10371;49.042;8.002;2023-04-29T00:44:54;99547.03;;;12.83;100.00
20424;BME280;10371;49.042;8.002;2023-04-29T00:45:54;99553.94;;;12.84;100.00
20424;BME280;10371;49.042;8.002;2023-04-29T00:46:55;99547.84;;;12.84;100.00
20424;BME280;10371;49.042;8.002;2023-04-29T00:47:55;99556.00;;;12.81;100.00
20424;BME280;10371;49.042;8.002;2023-04-29T00:48:56;99547.34;;;12.80;100.00
20424;BME280;10371;49.042;8.002;2023-04-29T00:49:56;99549.25;;;12.78;100.00
20424;BME280;10371;49.042;8.002;2023-04-29T00:50:57;99549.25;;;12.78;100.00
20424;BME280;10371;49.042;8.002;2023-04-29T00:51:58;99547.63;;;12.77;100.00
20424;BME280;10371;49.042;8.002;2023-04-29T00:52:59;99549.56;;;12.75;100.00
20424;BME280;10371;49.042;8.002;2023-04-29T00:53:59;99553.97;;;12.74;100.00
20424;BME280;10371;49.042;8.002;2023-04-29T00:55:00;99551.34;;;12.74;100.00
20424;BME280;10371;49.042;8.002;2023-04-29T00:56:01;99553.13;;;12.74;100.00
20424;BME280;10371;49.042;8.002;2023-04-29T00:57:05;99551.47;;;12.73;100.00
20424;BME280;10371;49.042;8.002;2023-04-29T00:58:06;99558.38;;;12.74;100.00
20424;BME280;10371;49.042;8.002;2023-04-29T00:59:09;99553.13;;;12.74;100.00
20424;BME280;10371;49.042;8.002;2023-04-29T01:00:11;99556.69;;;12.73;100.00
20424;BME280;10371;49.042;8.002;2023-04-29T01:01:13;99563.59;;;12.74;100.00
20424;BME280;10371;49.042;8.002;2023-04-29T01:02:14;99559.06;;;12.76;100.00
20424;BME280;10371;49.042;8.002;2023-04-29T01:03:14;99562.63;;;12.75;100.00
20424;BME280;10371;49.042;8.002;2023-04-29T01:04:15;99561.50;;;12.78;100.00
20424;BME280;10371;49.042;8.002;2023-04-29T01:05:15;99562.47;;;12.77;100.00
20424;BME280;10371;49.042;8.002;2023-04-29T01:06:31;99556.69;;;12.73;100.00
20424;BME280;10371;49.042;8.002;2023-04-29T01:10:26;99563.59;;;12.74;100.00
20424;BME280;10371;49.042;8.002;2023-04-29T01:11:34;99562.91;;;12.72;100.00
20424;BME280;10371;49.042;8.002;2023-04-29T01:13:54;99566.50;;;12.71;100.00
20424;BME280;10371;49.042;8.002;2023-04-29T01:15:09;99564.69;;;12.71;100.00
20424;BME280;10371;49.042;8.002;2023-04-29T01:17:55;99562.22;;;12.70;100.00
20424;BME280;10371;49.042;8.002;2023-04-29T01:19:01;99560.59;;;12.69;100.00
20424;BME280;10371;49.042;8.002;2023-04-29T01:20:06;99567.44;;;12.70;100.00
20424;BME280;10371;49.042;8.002;2023-04-29T01:21:07;99568.13;;;12.72;100.00
20424;BME280;10371;49.042;8.002;2023-04-29T01:22:08;99567.44;;;12.70;100.00
20424;BME280;10371;49.042;8.002;2023-04-29T01:23:08;99570.75;;;12.72;100.00
20424;BME280;10371;49.042;8.002;2023-04-29T01:24:08;99568.28;;;12.70;100.00
20424;BME280;10371;49.042;8.002;2023-04-29T01:25:09;99565.50;;;12.72;100.00
20424;BME280;10371;49.042;8.002;2023-04-29T01:26:09;99565.50;;;12.72;100.00
20424;BME280;10371;49.042;8.002;2023-04-29T01:28:55;99570.75;;;12.72;100.00
20424;BME280;10371;49.042;8.002;2023-04-29T01:30:18;99569.91;;;12.71;100.00
20424;BME280;10371;49.042;8.002;2023-04-29T01:31:30;99570.75;;;12.72;100.00
20424;BME280;10371;49.042;8.002;2023-04-29T01:32:40;99571.56;;;12.72;100.00
20424;BME280;10371;49.042;8.002;2023-04-29T01:34:13;99568.81;;;12.74;100.00
20424;BME280;10371;49.042;8.002;2023-04-29T01:38:03;99573.50;;;12.70;100.00
20424;BME280;10371;49.042;8.002;2023-04-29T01:39:14;99570.75;;;12.72;100.00
20424;BME280;10371;49.042;8.002;2023-04-29T01:40:19;99571.56;;;12.72;100.00
20424;BME280;10371;49.042;8.002;2023-04-29T01:41:29;99569.09;;;12.71;100.00
20424;BME280;10371;49.042;8.002;2023-04-29T01:42:42;99574.31;;;12.71;100.00
20424;BME280;10371;49.042;8.002;2023-04-29T01:43:47;99568.41;;;12.69;100.00
20424;BME280;10371;49.042;8.002;2023-04-29T01:44:52;99579.69;;;12.69;100.00
20424;BME280;10371;49.042;8.002;2023-04-29T01:45:55;99573.78;;;12.67;100.00
20424;BME280;10371;49.042;8.002;2023-04-29T01:46:57;99570.50;;;12.65;100.00
20424;BME280;10371;49.042;8.002;2023-04-29T01:47:58;99574.22;;;12.63;100.00
20424;BME280;10371;49.042;8.002;2023-04-29T01:48:58;99567.50;;;12.60;100.00
20424;BME280;10371;49.042;8.002;2023-04-29T01:49:59;99569.94;;;12.62;100.00
20424;BME280;10371;49.042;8.002;2023-04-29T01:51:00;99567.19;;;12.63;100.00
20424;BME280;10371;49.042;8.002;2023-04-29T01:52:00;99573.53;;;12.61;100.00
20424;BME280;10371;49.042;8.002;2023-04-29T01:53:01;99575.16;;;12.62;100.00
20424;BME280;10371;49.042;8.002;2023-04-29T01:54:01;99565.84;;;12.59;100.00
20424;BME280;10371;49.042;8.002;2023-04-29T01:55:04;99571.91;;;12.60;100.00
20424;BME280;10371;49.042;8.002;2023-04-29T01:56:06;99567.63;;;12.59;100.00
20424;BME280;10371;49.042;8.002;2023-04-29T01:57:07;99567.78;;;12.57;100.00
20424;BME280;10371;49.042;8.002;2023-04-29T01:58:07;99567.09;;;12.55;100.00
20424;BME280;10371;49.042;8.002;2023-04-29T01:59:08;99565.75;;;12.51;100.00
20424;BME280;10371;49.042;8.002;2023-04-29T02:00:08;99571.22;;;12.48;100.00
20424;BME280;10371;49.042;8.002;2023-04-29T02:01:09;99570.41;;;12.47;100.00
20424;BME280;10371;49.042;8.002;2023-04-29T02:02:10;99575.63;;;12.47;100.00
20424;BME280;10371;49.042;8.002;2023-04-29T02:03:11;99580.19;;;12.45;100.00
20424;BME280;10371;49.042;8.002;2023-04-29T02:04:11;99579.63;;;12.42;100.00
20424;BME280;10371;49.042;8.002;2023-04-29T02:05:12;99580.31;;;12.44;100.00
20424;BME280;10371;49.042;8.002;2023-04-29T02:06:12;99571.13;;;12.40;100.00
20424;BME280;10371;49.042;8.002;2023-04-29T02:07:12;99580.72;;;12.39;100.00
20424;BME280;10371;49.042;8.002;2023-04-29T02:08:13;99579.09;;;12.38;100.00
20424;BME280;10371;49.042;8.002;2023-04-29T02:09:13;99580.06;;;12.37;100.00
20424;BME280;10371;49.042;8.002;2023-04-29T02:10:13;99578.00;;;12.31;100.00
20424;BME280;10371;49.042;8.002;2023-04-29T02:11:14;99579.66;;;12.32;100.00
20424;BME280;10371;49.042;8.002;2023-04-29T02:12:14;99583.50;;;12.28;100.00
20424;BME280;10371;49.042;8.002;2023-04-29T02:13:14;99575.28;;;12.23;100.00
20424;BME280;10371;49.042;8.002;2023-04-29T02:14:14;99577.22;;;12.21;100.00
20424;BME280;10371;49.042;8.002;2023-04-29T02:15:15;99575.84;;;12.17;100.00
20424;BME280;10371;49.042;8.002;2023-04-29T02:16:16;99579.53;;;12.14;100.00
20424;BME280;10371;49.042;8.002;2023-04-29T02:17:16;99580.41;;;12.15;100.00
20424;BME280;10371;49.042;8.002;2023-04-29T02:18:17;99583.25;;;12.12;100.00
20424;BME280;10371;49.042;8.002;2023-04-29T02:19:17;99575.72;;;12.08;100.00
20424;BME280;10371;49.042;8.002;2023-04-29T02:20:17;99585.50;;;12.06;100.00
20424;BME280;10371;49.042;8.002;2023-04-29T02:21:18;99591.81;;;12.04;100.00
20424;BME280;10371;49.042;8.002;2023-04-29T02:22:18;99581.66;;;12.01;100.00
20424;BME280;10371;49.042;8.002;2023-04-29T02:23:18;99587.69;;;12.01;100.00
20424;BME280;10371;49.042;8.002;2023-04-29T02:24:18;99590.28;;;12.01;100.00
20424;BME280;10371;49.042;8.002;2023-04-29T02:25:18;99593.84;;;12.00;100.00
20424;BME280;10371;49.042;8.002;2023-04-29T02:26:19;99595.63;;;12.00;100.00
20424;BME280;10371;49.042;8.002;2023-04-29T02:27:19;99594.53;;;12.02;100.00
20424;BME280;10371;49.042;8.002;2023-04-29T02:28:19;99603.06;;;12.04;100.00
20424;BME280;10371;49.042;8.002;2023-04-29T02:29:19;99596.16;;;12.03;100.00
20424;BME280;10371;49.042;8.002;2023-04-29T02:30:20;99592.75;;;12.03;100.00
20424;BME280;10371;49.042;8.002;2023-04-29T02:31:20;99603.88;;;12.05;100.00
20424;BME280;10371;49.042;8.002;2023-04-29T02:32:21;99597.03;;;12.04;100.00
20424;BME280;10371;49.042;8.002;2023-04-29T02:33:21;99602.91;;;12.06;100.00
20424;BME280;10371;49.042;8.002;2023-04-29T02:34:21;99604.41;;;12.08;100.00
20424;BME280;10371;49.042;8.002;2023-04-29T02:35:23;99595.63;;;12.10;100.00
20424;BME280;10371;49.042;8.002;2023-04-29T02:36:23;99597.69;;;12.06;100.00
20424;BME280;10371;49.042;8.002;2023-04-29T02:37:23;99598.38;;;12.08;100.00
20424;BME280;10371;49.042;8.002;2023-04-29T02:38:24;99594.25;;;12.05;100.00
20424;BME280;10371;49.042;8.002;2023-04-29T02:39:24;99599.47;;;12.05;100.00
20424;BME280;10371;49.042;8.002;2023-04-29T02:40:24;99605.78;;;12.03;100.00
20424;BME280;10371;49.042;8.002;2023-04-29T02:41:26;99607.75;;;12.01;100.00
20424;BME280;10371;49.042;8.002;2023-04-29T02:42:26;99601.66;;;12.00;100.00
20424;BME280;10371;49.042;8.002;2023-04-29T02:43:26;99598.13;;;12.01;100.00
20424;BME280;10371;49.042;8.002;2023-04-29T02:44:29;99603.34;;;12.01;100.00
20424;BME280;10371;49.042;8.002;2023-04-29T02:45:30;99602.38;;;12.02;100.00
20424;BME280;10371;49.042;8.002;2023-04-29T02:46:30;99603.34;;;12.01;100.00
20424;BME280;10371;49.042;8.002;2023-04-29T02:47:32;99592.34;;;11.98;100.00
20424;BME280;10371;49.042;8.002;2023-04-29T02:48:32;99593.31;;;11.97;100.00
20424;BME280;10371;49.042;8.002;2023-04-29T02:49:33;99602.91;;;11.96;100.00
20424;BME280;10371;49.042;8.002;2023-04-29T02:50:33;99600.44;;;11.95;100.00
20424;BME280;10371;49.042;8.002;2023-04-29T02:51:33;99604.03;;;11.94;100.00
20424;BME280;10371;49.042;8.002;2023-04-29T02:52:34;99604.16;;;11.92;100.00
20424;BME280;10371;49.042;8.002;2023-04-29T02:53:35;99603.31;;;11.92;100.00
20424;BME280;10371;49.042;8.002;2023-04-29T02:54:35;99600.88;;;11.90;100.00
20424;BME280;10371;49.042;8.002;2023-04-29T02:55:35;99608.00;;;11.88;100.00
20424;BME280;10371;49.042;8.002;2023-04-29T02:56:36;99609.22;;;11.84;100.00
20424;BME280;10371;49.042;8.002;2023-04-29T02:57:36;99616.22;;;11.74;100.00
20424;BME280;10371;49.042;8.002;2023-04-29T02:58:37;99609.88;;;11.67;100.00
20424;BME280;10371;49.042;8.002;2023-04-29T02:59:37;99613.56;;;11.64;100.00
20424;BME280;10371;49.042;8.002;2023-04-29T03:00:39;99618.13;;;11.62;100.00
20424;BME280;10371;49.042;8.002;2023-04-29T03:01:40;99608.78;;;11.59;100.00
20424;BME280;10371;49.042;8.002;2023-04-29T03:02:40;99611.50;;;11.58;100.00
20424;BME280;10371;49.042;8.002;2023-04-29T03:03:41;99620.44;;;11.55;100.00
20424;BME280;10371;49.042;8.002;2023-04-29T03:04:41;99614.78;;;11.50;100.00
20424;BME280;10371;49.042;8.002;2023-04-29T03:05:42;99611.78;;;11.45;100.00
20424;BME280;10371;49.042;8.002;2023-04-29T03:06:42;99621.50;;;11.43;100.00
20424;BME280;10371;49.042;8.002;2023-04-29T03:07:42;99605.44;;;11.38;100.00
20424;BME280;10371;49.042;8.002;2023-04-29T03:08:43;99614.09;;;11.38;100.00
20424;BME280;10371;49.042;8.002;2023-04-29T03:09:43;99619.19;;;11.40;100.00
20424;BME280;10371;49.042;8.002;2023-04-29T03:10:43;99617.78;;;11.36;100.00
20424;BME280;10371;49.042;8.002;2023-04-29T03:11:45;99618.31;;;11.30;100.00
20424;BME280;10371;49.042;8.002;2023-04-29T03:12:45;99616.81;;;11.27;100.00
20424;BME280;10371;49.042;8.002;2023-04-29T03:13:46;99616.25;;;11.24;100.00
20424;BME280;10371;49.042;8.002;2023-04-29T03:14:46;99616.38;;;11.22;100.00
20424;BME280;10371;49.042;8.002;2023-04-29T03:15:47;99618.44;;;11.18;100.00
20424;BME280;10371;49.042;8.002;2023-04-29T03:16:47;99624.03;;;11.14;100.00
20424;BME280;10371;49.042;8.002;2023-04-29T03:17:47;99614.03;;;11.09;100.00
20424;BME280;10371;49.042;8.002;2023-04-29T03:18:48;99618.41;;;11.09;100.00
20424;BME280;10371;49.042;8.002;2023-04-29T03:19:49;99618.53;;;11.07;100.00
20424;BME280;10371;49.042;8.002;2023-04-29T03:20:50;99622.22;;;11.05;100.00
20424;BME280;10371;49.042;8.002;2023-04-29T03:21:50;99626.63;;;11.04;100.00
20424;BME280;10371;49.042;8.002;2023-04-29T03:22:50;99627.00;;;11.00;100.00
20424;BME280;10371;49.042;8.002;2023-04-29T03:23:50;99627.41;;;10.95;100.00
20424;BME280;10371;49.042;8.002;2023-04-29T03:24:51;99627.09;;;10.88;100.00
20424;BME280;10371;49.042;8.002;2023-04-29T03:25:51;99625.56;;;10.86;100.00
20424;BME280;10371;49.042;8.002;2023-04-29T03:26:52;99629.13;;;10.85;100.00
20424;BME280;10371;49.042;8.002;2023-04-29T03:27:52;99617.19;;;10.82;100.00
20424;BME280;10371;49.042;8.002;2023-04-29T03:28:52;99633.66;;;10.83;100.00
20424;BME280;10371;49.042;8.002;2023-04-29T03:29:53;99634.72;;;10.80;100.00
20424;BME280;10371;49.042;8.002;2023-04-29T03:30:53;99628.84;;;10.78;100.00
20424;BME280;10371;49.042;8.002;2023-04-29T03:31:56;99628.16;;;10.76;100.00
20424;BME280;10371;49.042;8.002;2023-04-29T03:32:56;99628.25;;;10.74;100.00
20424;BME280;10371;49.042;8.002;2023-04-29T03:33:56;99631.00;;;10.73;100.00
20424;BME280;10371;49.042;8.002;2023-04-29T03:34:57;99628.53;;;10.71;100.00
20424;BME280;10371;49.042;8.002;2023-04-29T03:35:57;99627.25;;;10.66;100.00
20424;BME280;10371;49.042;8.002;2023-04-29T03:36:57;99628.22;;;10.65;100.00
20424;BME280;10371;49.042;8.002;2023-04-29T03:37:58;99629.31;;;10.62;100.00
20424;BME280;10371;49.042;8.002;2023-04-29T03:38:58;99632.16;;;10.59;100.00
20424;BME280;10371;49.042;8.002;2023-04-29T03:39:58;99623.75;;;10.56;100.00
20424;BME280;10371;49.042;8.002;2023-04-29T03:40:58;99633.34;;;10.55;100.00
20424;BME280;10371;49.042;8.002;2023-04-29T03:41:59;99625.00;;;10.51;100.00
20424;BME280;10371;49.042;8.002;2023-04-29T03:43:00;99629.50;;;10.49;100.00
20424;BME280;10371;49.042;8.002;2023-04-29T03:44:00;99640.06;;;10.48;100.00
20424;BME280;10371;49.042;8.002;2023-04-29T03:45:01;99636.84;;;10.44;100.00
20424;BME280;10371;49.042;8.002;2023-04-29T03:46:01;99637.94;;;10.42;100.00
20424;BME280;10371;49.042;8.002;2023-04-29T03:47:02;99634.75;;;10.38;100.00
20424;BME280;10371;49.042;8.002;2023-04-29T03:48:02;99632.72;;;10.42;100.00
20424;BME280;10371;49.042;8.002;2023-04-29T03:49:03;99636.28;;;10.41;100.00
20424;BME280;10371;49.042;8.002;2023-04-29T03:50:03;99642.47;;;10.40;100.00
20424;BME280;10371;49.042;8.002;2023-04-29T03:51:04;99634.19;;;10.35;100.00
20424;BME280;10371;49.042;8.002;2023-04-29T03:52:04;99636.81;;;10.35;100.00
20424;BME280;10371;49.042;8.002;2023-04-29T03:53:05;99636.25;;;10.31;100.00
20424;BME280;10371;49.042;8.002;2023-04-29T03:54:05;99633.63;;;10.31;100.00
20424;BME280;10371;49.042;8.002;2023-04-29T03:55:06;99634.47;;;10.32;100.00
20424;BME280;10371;49.042;8.002;2023-04-29T03:56:07;99642.25;;;10.32;100.00
20424;BME280;10371;49.042;8.002;2023-04-29T03:57:07;99637.06;;;10.32;100.00
20424;BME280;10371;49.042;8.002;2023-04-29T03:58:07;99638.84;;;10.31;100.00
20424;BME280;10371;49.042;8.002;2023-04-29T03:59:08;99634.56;;;10.30;100.00
20424;BME280;10371;49.042;8.002;2023-04-29T04:00:08;99631.16;;;10.29;100.00
20424;BME280;10371;49.042;8.002;2023-04-29T04:01:10;99630.44;;;10.27;100.00
20424;BME280;10371;49.042;8.002;2023-04-29T04:02:11;99640.03;;;10.27;100.00
20424;BME280;10371;49.042;8.002;2023-04-29T04:03:11;99630.44;;;10.27;100.00
20424;BME280;10371;49.042;8.002;2023-04-29T04:04:11;99645.22;;;10.27;100.00
20424;BME280;10371;49.042;8.002;2023-04-29T04:05:12;99634.72;;;10.28;100.00
20424;BME280;10371;49.042;8.002;2023-04-29T04:06:12;99641.69;;;10.28;100.00
20424;BME280;10371;49.042;8.002;2023-04-29T04:07:13;99640.84;;;10.27;100.00
20424;BME280;10371;49.042;8.002;2023-04-29T04:08:13;99645.22;;;10.27;100.00
20424;BME280;10371;49.042;8.002;2023-04-29T04:09:14;99648.78;;;10.26;100.00
20424;BME280;10371;49.042;8.002;2023-04-29T04:10:14;99644.50;;;10.25;100.00
20424;BME280;10371;49.042;8.002;2023-04-29T04:11:15;99650.66;;;10.24;100.00
20424;BME280;10371;49.042;8.002;2023-04-29T04:12:15;99649.03;;;10.23;100.00
20424;BME280;10371;49.042;8.002;2023-04-29T04:13:16;99644.75;;;10.22;100.00
20424;BME280;10371;49.042;8.002;2023-04-29T04:14:16;99646.78;;;10.18;100.00
20424;BME280;10371;49.042;8.002;2023-04-29T04:15:17;99648.56;;;10.18;100.00
20424;BME280;10371;49.042;8.002;2023-04-29T04:16:17;99645.97;;;10.18;100.00
20424;BME280;10371;49.042;8.002;2023-04-29T04:17:18;99652.00;;;10.18;100.00
20424;BME280;10371;49.042;8.002;2023-04-29T04:18:18;99646.91;;;10.17;100.00
20424;BME280;10371;49.042;8.002;2023-04-29T04:19:18;99654.03;;;10.15;100.00
20424;BME280;10371;49.042;8.002;2023-04-29T04:20:18;99655.91;;;10.13;100.00
20424;BME280;10371;49.042;8.002;2023-04-29T04:21:19;99658.63;;;10.11;100.00
20424;BME280;10371;49.042;8.002;2023-04-29T04:22:19;99656.03;;;10.11;100.00
20424;BME280;10371;49.042;8.002;2023-04-29T04:23:20;99660.56;;;10.09;100.00
20424;BME280;10371;49.042;8.002;2023-04-29T04:24:20;99652.75;;;10.09;100.00
20424;BME280;10371;49.042;8.002;2023-04-29T04:25:20;99656.88;;;10.12;100.00
20424;BME280;10371;49.042;8.002;2023-04-29T04:26:20;99655.09;;;10.12;100.00
20424;BME280;10371;49.042;8.002;2023-04-29T04:27:22;99663.84;;;10.11;100.00
20424;BME280;10371;49.042;8.002;2023-04-29T04:28:22;99662.09;;;10.12;100.00
20424;BME280;10371;49.042;8.002;2023-04-29T04:29:23;99666.44;;;10.11;100.00
20424;BME280;10371;49.042;8.002;2023-04-29T04:30:23;99662.91;;;10.12;100.00
20424;BME280;10371;49.042;8.002;2023-04-29T04:31:23;99661.22;;;10.11;100.00
20424;BME280;10371;49.042;8.002;2023-04-29T04:32:25;99666.31;;;10.13;100.00
20424;BME280;10371;49.042;8.002;2023-04-29T04:33:25;99668.91;;;10.13;100.00
20424;BME280;10371;49.042;8.002;2023-04-29T04:34:26;99657.69;;;10.12;100.00
20424;BME280;10371;49.042;8.002;2023-04-29T04:35:26;99672.91;;;10.17;100.00
20424;BME280;10371;49.042;8.002;2023-04-29T04:36:27;99666.22;;;10.14;100.00
20424;BME280;10371;49.042;8.002;2023-04-29T04:37:27;99670.44;;;10.15;100.00
20424;BME280;10371;49.042;8.002;2023-04-29T04:38:27;99676.38;;;10.17;100.00
20424;BME280;10371;49.042;8.002;2023-04-29T04:39:28;99683.47;;;10.15;100.00
20424;BME280;10371;49.042;8.002;2023-04-29T04:40:28;99685.00;;;10.18;100.00
20424;BME280;10371;49.042;8.002;2023-04-29T04:41:29;99690.31;;;10.16;100.00
20424;BME280;10371;49.042;8.002;2023-04-29T04:42:31;99695.41;;;10.18;100.00
20424;BME280;10371;49.042;8.002;2023-04-29T04:43:31;99697.03;;;10.19;100.00
20424;BME280;10371;49.042;8.002;2023-04-29T04:44:31;99701.31;;;10.20;100.00
20424;BME280;10371;49.042;8.002;2023-04-29T04:45:32;99698.44;;;10.23;100.00
20424;BME280;10371;49.042;8.002;2023-04-29T04:46:33;99697.50;;;10.24;100.00
20424;BME280;10371;49.042;8.002;2023-04-29T04:47:34;99700.69;;;10.27;100.00
20424;BME280;10371;49.042;8.002;2023-04-29T04:48:35;99702.22;;;10.30;100.00
20424;BME280;10371;49.042;8.002;2023-04-29T04:49:35;99704.81;;;10.30;100.00
20424;BME280;10371;49.042;8.002;2023-04-29T04:50:36;99702.56;;;10.37;100.00
20424;BME280;10371;49.042;8.002;2023-04-29T04:51:36;99707.00;;;10.46;100.00
20424;BME280;10371;49.042;8.002;2023-04-29T04:52:36;99698.94;;;10.49;100.00
20424;BME280;10371;49.042;8.002;2023-04-29T04:53:37;99703.91;;;10.52;100.00
20424;BME280;10371;49.042;8.002;2023-04-29T04:54:38;99703.53;;;10.57;100.00
20424;BME280;10371;49.042;8.002;2023-04-29T04:55:38;99710.00;;;10.62;100.00
20424;BME280;10371;49.042;8.002;2023-04-29T04:56:38;99701.69;;;10.68;100.00
20424;BME280;10371;49.042;8.002;2023-04-29T04:57:38;99703.91;;;10.73;100.00
20424;BME280;10371;49.042;8.002;2023-04-29T04:58:39;99695.13;;;10.74;100.00
20424;BME280;10371;49.042;8.002;2023-04-29T04:59:39;99705.63;;;10.84;100.00
20424;BME280;10371;49.042;8.002;2023-04-29T05:00:43;99706.75;;;10.91;100.00
20424;BME280;10371;49.042;8.002;2023-04-29T05:01:43;99715.72;;;10.98;100.00
20424;BME280;10371;49.042;8.002;2023-04-29T05:02:44;99710.09;;;11.03;100.00
20424;BME280;10371;49.042;8.002;2023-04-29T05:03:44;99713.69;;;11.11;100.00
20424;BME280;10371;49.042;8.002;2023-04-29T05:04:44;99713.19;;;11.17;100.00
20424;BME280;10371;49.042;8.002;2023-04-29T05:05:45;99712.66;;;11.24;100.00
20424;BME280;10371;49.042;8.002;2023-04-29T05:06:45;99719.84;;;11.31;100.00
20424;BME280;10371;49.042;8.002;2023-04-29T05:07:46;99713.41;;;11.35;100.00
20424;BME280;10371;49.042;8.002;2023-04-29T05:08:46;99726.47;;;11.45;100.00
20424;BME280;10371;49.042;8.002;2023-04-29T05:09:47;99711.81;;;11.54;100.00
20424;BME280;10371;49.042;8.002;2023-04-29T05:10:47;99717.31;;;11.60;100.00
20424;BME280;10371;49.042;8.002;2023-04-29T05:11:47;99712.38;;;11.67;100.00
20424;BME280;10371;49.042;8.002;2023-04-29T05:12:48;99712.31;;;11.78;100.00
20424;BME280;10371;49.042;8.002;2023-04-29T05:13:48;99709.28;;;11.83;100.00
20424;BME280;10371;49.042;8.002;2023-04-29T05:14:52;99718.25;;;11.90;100.00
20424;BME280;10371;49.042;8.002;2023-04-29T05:15:52;99718.13;;;12.01;100.00
20424;BME280;10371;49.042;8.002;2023-04-29T05:16:57;99727.91;;;12.09;100.00
20424;BME280;10371;49.042;8.002;2023-04-29T05:17:57;99719.53;;;12.15;100.00
20424;BME280;10371;49.042;8.002;2023-04-29T05:18:58;99723.91;;;12.24;100.00
20424;BME280;10371;49.042;8.002;2023-04-29T05:19:58;99732.97;;;12.30;100.00
20424;BME280;10371;49.042;8.002;2023-04-29T05:20:58;99733.81;;;12.40;100.00
20424;BME280;10371;49.042;8.002;2023-04-29T05:21:59;99725.56;;;12.45;100.00
20424;BME280;10371;49.042;8.002;2023-04-29T05:22:59;99728.84;;;12.47;100.00
20424;BME280;10371;49.042;8.002;2023-04-29T05:23:59;99736.53;;;12.58;100.00
20424;BME280;10371;49.042;8.002;2023-04-29T05:25:00;99737.50;;;12.67;100.00
20424;BME280;10371;49.042;8.002;2023-04-29T05:26:02;99729.66;;;12.77;100.00
20424;BME280;10371;49.042;8.002;2023-04-29T05:27:02;99732.53;;;12.83;100.00
20424;BME280;10371;49.042;8.002;2023-04-29T05:28:03;99725.50;;;12.93;100.00
20424;BME280;10371;49.042;8.002;2023-04-29T05:29:03;99732.19;;;13.06;100.00
20424;BME280;10371;49.042;8.002;2023-04-29T05:30:04;99731.50;;;13.13;100.00